Time;durP1;ratioP1;P1;durP2;ratioP2;P2;SDS_P1;SDS_P2;PMS_P1;PMS_P2;Temp;Humidity;BMP_temperature;BMP_pressure;BME280_temperature;BME280_humidity;BME280_pressure;Samples;Min_cycle;Max_cycle;Signal;HPM_P1;HPM_P2
2022/12/13 00:00:46;;;;;;;;;;;;;;;;;;4979440;28;7212;-63
2022/12/13 00:03:11;;;;;;;;;;;;;;;;;;4979448;28;7041;-72
2022/12/13 00:05:43;;;;;;;;;;;;;;;;;;4979413;28;7153;-71
2022/12/13 00:08:09;;;;;;;;;;;;;;;;;;4979302;28;7051;-71
2022/12/13 00:10:34;;;;;;;;;;;;;;;;;;4979119;28;7111;-71
2022/12/13 00:13:00;;;;;;;;;;;;;;;;;;4978900;28;7181;-71
2022/12/13 00:15:26;;;;;;;;;;;;;;;;;;4979156;28;7200;-71
2022/12/13 00:17:51;;;;;;;;;;;;;;;;;;4979102;28;6827;-71
2022/12/13 00:20:17;;;;;;;;;;;;;;;;;;4979028;28;7107;-71
2022/12/13 00:22:42;;;;;;;;;;;;;;;;;;4974376;28;7171;-71
2022/12/13 00:25:18;;;;;;;;;;;;;;;;;;4979071;28;7138;-63
2022/12/13 00:27:44;;;;;;;;;;;;;;;;;;4979549;28;7137;-63
2022/12/13 00:30:24;;;;;;;;;;;;;;;;;;4978705;28;7198;-63
2022/12/13 00:32:52;;;;;;;;;;;;;;;;;;4978814;28;7254;-63
2022/12/13 00:35:18;;;;;;;;;;;;;;;;;;4978796;28;7020;-63
2022/12/13 00:37:43;;;;;;;;;;;;;;;;;;4978866;28;7331;-63
2022/12/13 00:43:01;;;;;;;;;;;;;;;;;;4978866;28;6784;-63
2022/12/13 00:45:27;;;;;;;;;;;;;;;;;;4978681;28;7257;-63
2022/12/13 00:47:53;;;;;;;;;;;;;;;;;;4978638;28;7271;-63
2022/12/13 00:50:19;;;;;;;;;;;;;;;;;;4978368;28;7093;-63
2022/12/13 00:52:44;;;;;;;;;;;;;;;;;;4977797;28;7359;-63
2022/12/13 00:55:44;;;;;;;;;;;;;;;;;;4978427;28;7163;-63
2022/12/13 00:58:10;;;;;;;;;;;;;;;;;;4978371;28;6975;-63
2022/12/13 01:00:41;;;;;;;;;;;;;;;;;;4978277;28;7054;-63
2022/12/13 01:03:19;;;;;;;;;;;;;;;;;;4976857;28;8594;-63
2022/12/13 01:05:46;;;;;;;;;;;;;;;;;;4976958;28;7029;-63
2022/12/13 01:08:12;;;;;;;;;;;;;;;;;;4978229;28;7245;-63
2022/12/13 01:10:54;;;;;;;;;;;;;;;;;;4977776;28;6932;-63
2022/12/13 01:13:20;;;;;;;;;;;;;;;;;;4978111;28;7195;-63
2022/12/13 01:16:17;;;;;;;;;;;;;;;;;;4977907;28;7148;-63
2022/12/13 01:18:43;;;;;;;;;;;;;;;;;;4978139;28;7216;-71
2022/12/13 01:21:17;;;;;;;;;;;;;;;;;;4978047;28;7204;-71
2022/12/13 01:23:44;;;;;;;;;;;;;;;;;;4977659;28;7005;-71
2022/12/13 01:26:13;;;;;;;;;;;;;;;;;;4978269;28;7027;-71
2022/12/13 01:28:39;;;;;;;;;;;;;;;;;;4977820;28;7160;-71
2022/12/13 01:31:18;;;;;;;;;;;;;;;;;;4977403;28;6933;-71
2022/12/13 01:33:43;;;;;;;;;;;;;;;;;;4977740;28;7464;-71
2022/12/13 01:36:15;;;;;;;;;;;;;;;;;;4977690;28;7023;-71
2022/12/13 01:38:41;;;;;;;;;;;;;;;;;;4977592;28;6815;-71
2022/12/13 01:41:06;;;;;;;;;;;;;;;;;;4977420;28;7402;-70
2022/12/13 01:43:55;;;;;;;;;;;;;;;;;;4977663;28;7180;-71
2022/12/13 01:46:22;;;;;;;;;;;;;;;;;;4977253;28;7428;-71
2022/12/13 01:49:01;;;;;;;;;;;;;;;;;;4977544;28;7209;-71
2022/12/13 01:51:49;;;;;;;;;;;;;;;;;;4977334;28;7295;-71
2022/12/13 01:54:18;;;;;;;;;;;;;;;;;;4977539;28;7058;-71
2022/12/13 01:57:05;;;;;;;;;;;;;;;;;;4976907;28;8141;-71
2022/12/13 01:59:34;;;;;;;;;;;;;;;;;;4977116;28;7471;-71
2022/12/13 02:02:00;;;;;;;;;;;;;;;;;;4977172;28;7404;-71
2022/12/13 02:04:49;;;;;;;;;;;;;;;;;;4976290;28;6995;-71
2022/12/13 02:07:18;;;;;;;;;;;;;;;;;;4977499;28;6960;-71
2022/12/13 02:09:45;;;;;;;;;;;;;;;;;;4976952;28;7135;-71
2022/12/13 02:12:42;;;;;;;;;;;;;;;;;;4977139;28;7077;-71
2022/12/13 02:15:19;;;;;;;;;;;;;;;;;;4976977;28;7035;-71
2022/12/13 02:18:03;;;;;;;;;;;;;;;;;;4977018;28;7435;-71
2022/12/13 02:20:34;;;;;;;;;;;;;;;;;;4976835;28;7172;-71
2022/12/13 02:26:27;;;;;;;;;;;;;;;;;;4976554;28;7034;-71
2022/12/13 02:28:59;;;;;;;;;;;;;;;;;;4976832;28;7144;-71
2022/12/13 02:31:48;;;;;;;;;;;;;;;;;;4975349;28;8489;-71
2022/12/13 02:34:21;;;;;;;;;;;;;;;;;;4976607;28;6933;-71
2022/12/13 02:37:06;;;;;;;;;;;;;;;;;;4976626;28;6945;-71
2022/12/13 02:39:39;;;;;;;;;;;;;;;;;;4976560;28;7514;-71
2022/12/13 02:42:12;;;;;;;;;;;;;;;;;;4976530;28;7231;-71
2022/12/13 02:45:07;;;;;;;;;;;;;;;;;;4976557;28;7290;-71
2022/12/13 02:47:36;;;;;;;;;;;;;;;;;;4975062;28;8293;-71
2022/12/13 02:50:05;;;;;;;;;;;;;;;;;;4976446;28;7016;-71
2022/12/13 02:52:51;;;;;;;;;;;;;;;;;;4975914;28;7143;-71
2022/12/13 02:55:17;;;;;;;;;;;;;;;;;;4976360;28;7453;-71
2022/12/13 02:57:43;;;;;;;;;;;;;;;;;;4976269;28;7141;-71
2022/12/13 03:00:16;;;;;;;;;;;;;;;;;;4976205;28;7083;-71
2022/12/13 03:09:24;;;;;;;;;;;;;;;;;;4976238;28;6685;-71
2022/12/13 03:17:41;;;;;;;;;;;;;;;;;;4976680;28;6951;-71
2022/12/13 03:20:08;;;;;;;;;;;;;;;;;;4975924;28;7190;-71
2022/12/13 03:22:34;;;;;;;;;;;;;;;;;;4974486;28;7077;-71
2022/12/13 03:25:07;;;;;;;;;;;;;;;;;;4976117;28;7163;-71
2022/12/13 03:27:32;;;;;;;;;;;;;;;;;;4975933;28;6910;-70
2022/12/13 03:33:01;;;;;;;;;;;;;;;;;;4975743;28;6932;-71
2022/12/13 03:35:27;;;;;;;;;;;;;;;;;;4975889;28;7181;-71
2022/12/13 03:37:52;;;;;;;;;;;;;;;;;;4975846;28;7112;-71
2022/12/13 03:40:22;;;;;;;;;;;;;;;;;;4975801;28;7079;-72
2022/12/13 03:42:48;;;;;;;;;;;;;;;;;;4975488;28;7820;-71
2022/12/13 03:45:19;;;;;;;;;;;;;;;;;;4975661;28;7467;-71
2022/12/13 03:47:45;;;;;;;;;;;;;;;;;;4975629;28;7228;-71
2022/12/13 03:50:25;;;;;;;;;;;;;;;;;;4975641;28;7117;-71
2022/12/13 03:52:56;;;;;;;;;;;;;;;;;;4974653;28;8483;-71
2022/12/13 03:55:29;;;;;;;;;;;;;;;;;;4975709;28;7517;-71
2022/12/13 03:57:55;;;;;;;;;;;;;;;;;;4975766;28;7226;-71
2022/12/13 04:00:21;;;;;;;;;;;;;;;;;;4975695;28;7128;-72
2022/12/13 04:02:46;;;;;;;;;;;;;;;;;;4975340;28;7171;-71
2022/12/13 04:05:12;;;;;;;;;;;;;;;;;;4975691;28;7181;-71
2022/12/13 04:07:44;;;;;;;;;;;;;;;;;;4975791;28;7130;-71
2022/12/13 04:10:23;;;;;;;;;;;;;;;;;;4975619;28;7005;-71
2022/12/13 04:15:47;;;;;;;;;;;;;;;;;;4976295;28;6800;-71
2022/12/13 04:21:12;;;;;;;;;;;;;;;;;;4975496;28;6963;-71
2022/12/13 04:23:38;;;;;;;;;;;;;;;;;;4973825;28;7019;-71
2022/12/13 04:26:13;;;;;;;;;;;;;;;;;;4975223;28;6854;-71
2022/12/13 04:28:39;;;;;;;;;;;;;;;;;;4979135;28;7279;-71
2022/12/13 04:31:07;;;;;;;;;;;;;;;;;;4978919;28;7374;-71
2022/12/13 04:33:33;;;;;;;;;;;;;;;;;;4978696;28;8072;-71
2022/12/13 04:36:18;;;;;;;;;;;;;;;;;;4978876;28;7098;-71
2022/12/13 04:38:45;;;;;;;;;;;;;;;;;;4978661;28;6991;-71
2022/12/13 04:41:43;;;;;;;;;;;;;;;;;;4978656;28;7349;-71
2022/12/13 04:44:09;;;;;;;;;;;;;;;;;;4978737;28;7035;-71
2022/12/13 04:46:35;;;;;;;;;;;;;;;;;;4978267;28;7162;-71
2022/12/13 04:49:01;;;;;;;;;;;;;;;;;;4978450;28;7273;-72
2022/12/13 04:51:28;;;;;;;;;;;;;;;;;;4978487;28;7138;-72
2022/12/13 04:53:53;;;;;;;;;;;;;;;;;;4978498;28;7397;-71
2022/12/13 04:59:33;;;;;;;;;;;;;;;;;;4978456;28;7094;-71
2022/12/13 05:01:58;;;;;;;;;;;;;;;;;;4978059;28;7056;-71
2022/12/13 05:07:16;;;;;;;;;;;;;;;;;;4978749;28;6916;-71
2022/12/13 05:09:48;;;;;;;;;;;;;;;;;;4978056;28;7217;-71
2022/12/13 05:12:14;;;;;;;;;;;;;;;;;;4978381;28;7463;-72
2022/12/13 05:14:39;;;;;;;;;;;;;;;;;;4978276;28;7138;-71
2022/12/13 05:20:09;;;;;;;;;;;;;;;;;;4977750;28;7019;-71
2022/12/13 05:22:36;;;;;;;;;;;;;;;;;;4977765;28;7393;-71
2022/12/13 05:25:03;;;;;;;;;;;;;;;;;;4977947;28;7454;-71
2022/12/13 05:27:29;;;;;;;;;;;;;;;;;;4978565;28;7085;-71
2022/12/13 05:30:20;;;;;;;;;;;;;;;;;;4977775;28;7060;-71
2022/12/13 05:32:45;;;;;;;;;;;;;;;;;;4977819;28;6818;-71
2022/12/13 05:35:13;;;;;;;;;;;;;;;;;;4977825;28;7001;-71
2022/12/13 05:37:38;;;;;;;;;;;;;;;;;;4977697;28;7024;-71
2022/12/13 05:40:04;;;;;;;;;;;;;;;;;;4977552;28;7323;-71
2022/12/13 05:42:32;;;;;;;;;;;;;;;;;;4977503;28;7103;-71
2022/12/13 05:44:57;;;;;;;;;;;;;;;;;;4977637;28;7947;-71
2022/12/13 05:47:24;;;;;;;;;;;;;;;;;;4977636;28;7307;-71
2022/12/13 05:49:51;;;;;;;;;;;;;;;;;;4977279;28;7025;-71
2022/12/13 05:52:19;;;;;;;;;;;;;;;;;;4976958;28;6841;-71
2022/12/13 05:54:44;;;;;;;;;;;;;;;;;;4978315;28;7127;-71
2022/12/13 05:57:11;;;;;;;;;;;;;;;;;;4977278;28;7154;-71
2022/12/13 05:59:36;;;;;;;;;;;;;;;;;;4976917;28;7329;-71
2022/12/13 06:02:02;;;;;;;;;;;;;;;;;;4978320;28;7193;-71
2022/12/13 06:04:28;;;;;;;;;;;;;;;;;;4977226;28;7094;-71
2022/12/13 06:06:53;;;;;;;;;;;;;;;;;;4977168;28;7104;-71
2022/12/13 06:09:21;;;;;;;;;;;;;;;;;;4977101;28;7409;-72
2022/12/13 06:11:47;;;;;;;;;;;;;;;;;;4977091;28;7438;-72
2022/12/13 06:14:16;;;;;;;;;;;;;;;;;;4977078;28;7114;-72
2022/12/13 06:16:42;;;;;;;;;;;;;;;;;;4976832;28;6979;-71
2022/12/13 06:19:26;;;;;;;;;;;;;;;;;;4976913;28;7742;-72
2022/12/13 06:21:53;;;;;;;;;;;;;;;;;;4976891;28;7072;-72
2022/12/13 06:24:20;;;;;;;;;;;;;;;;;;4975768;28;6820;-79
2022/12/13 06:27:10;;;;;;;;;;;;;;;;;;4976403;28;7139;-72
2022/12/13 06:29:35;;;;;;;;;;;;;;;;;;4975840;28;7275;-72
2022/12/13 06:32:01;;;;;;;;;;;;;;;;;;4976295;28;7197;-72
2022/12/13 06:34:39;;;;;;;;;;;;;;;;;;4976738;28;6933;-72
2022/12/13 06:37:06;;;;;;;;;;;;;;;;;;4976509;28;7153;-72
2022/12/13 06:39:32;;;;;;;;;;;;;;;;;;4976452;28;7107;-72
2022/12/13 06:41:57;;;;;;;;;;;;;;;;;;4976447;28;7368;-72
2022/12/13 06:44:24;;;;;;;;;;;;;;;;;;4976458;28;6941;-72
2022/12/13 06:46:49;;;;;;;;;;;;;;;;;;4975780;28;6867;-72
2022/12/13 06:49:22;;;;;;;;;;;;;;;;;;4975605;28;7203;-73
2022/12/13 06:51:47;;;;;;;;;;;;;;;;;;4976312;28;7071;-73
2022/12/13 06:54:24;;;;;;;;;;;;;;;;;;4976256;28;7043;-73
2022/12/13 06:56:50;;;;;;;;;;;;;;;;;;4975993;28;7170;-73
2022/12/13 06:59:28;;;;;;;;;;;;;;;;;;4976012;28;7057;-73
2022/12/13 07:01:54;;;;;;;;;;;;;;;;;;4976346;28;7129;-73
2022/12/13 07:07:45;;;;;;;;;;;;;;;;;;4976019;28;6752;-74
2022/12/13 07:10:10;;;;;;;;;;;;;;;;;;4975974;28;7065;-73
2022/12/13 07:15:39;;;;;;;;;;;;;;;;;;4975739;28;6697;-72
2022/12/13 07:21:25;;;;;;;;;;;;;;;;;;4975701;28;6706;-72
2022/12/13 07:24:11;;;;;;;;;;;;;;;;;;4975170;28;7176;-72
2022/12/13 07:26:36;;;;;;;;;;;;;;;;;;4975929;28;7078;-73
2022/12/13 16:26:56;;;;;;;;;;;;;;;;;;5072988;28;7022;-72
2022/12/13 16:29:23;;;;;;;;;;;;;;;;;;5051919;28;6911;-72
2022/12/13 16:31:49;;;;;;;;;;;;;;;;;;5052293;28;7175;-72
2022/12/13 16:34:16;;;;;;;;;;;;;;;;;;5051731;28;7171;-72
2022/12/13 16:36:51;;;;;;;;;;;;;;;;;;5052049;28;8289;-64
2022/12/13 16:39:17;;;;;;;;;;;;;;;;;;5052409;28;7266;-64
2022/12/13 16:41:45;;;;;;;;;;;;;;;;;;5051891;28;7115;-64
2022/12/13 16:47:13;;;;;;;;;;;;;;;;;;5051566;28;6924;-63
2022/12/13 16:49:39;;;;;;;;;;;;;;;;;;5051692;28;7363;-64
2022/12/13 16:52:07;;;;;;;;;;;;;;;;;;5051453;28;6936;-64
2022/12/13 16:54:33;;;;;;;;;;;;;;;;;;5051605;28;7505;-64
2022/12/13 16:56:58;;;;;;;;;;;;;;;;;;5052006;28;7218;-64
2022/12/13 17:02:19;;;;;;;;;;;;;;;;;;5051469;28;6840;-64
2022/12/13 17:04:44;;;;;;;;;;;;;;;;;;5051312;28;7932;-63
2022/12/13 17:07:13;;;;;;;;;;;;;;;;;;5051474;28;8302;-64
2022/12/13 17:09:40;;;;;;;;;;;;;;;;;;5051051;28;8019;-64
2022/12/13 17:12:06;;;;;;;;;;;;;;;;;;5051280;28;7135;-63
2022/12/13 17:14:46;;;;;;;;;;;;;;;;;;5051402;28;7128;-63
2022/12/13 17:17:12;;;;;;;;;;;;;;;;;;5051204;28;7330;-63
2022/12/13 17:19:37;;;;;;;;;;;;;;;;;;5051158;28;7169;-63
2022/12/13 17:22:15;;;;;;;;;;;;;;;;;;5051250;28;7347;-64
2022/12/13 17:25:00;;;;;;;;;;;;;;;;;;5050975;28;7231;-64
2022/12/13 17:27:26;;;;;;;;;;;;;;;;;;5051105;28;7108;-64
2022/12/13 17:29:53;;;;;;;;;;;;;;;;;;5050979;28;7224;-64
2022/12/13 17:32:19;;;;;;;;;;;;;;;;;;5051037;28;7069;-63
2022/12/13 17:34:44;;;;;;;;;;;;;;;;;;5050681;28;7235;-64
2022/12/13 17:37:10;;;;;;;;;;;;;;;;;;5043289;28;6885;-64
2022/12/13 17:39:36;;;;;;;;;;;;;;;;;;5037457;28;7068;-64
2022/12/13 17:42:02;;;;;;;;;;;;;;;;;;5037440;28;7164;-64
2022/12/13 17:44:37;;;;;;;;;;;;;;;;;;5037689;28;6890;-64
2022/12/13 17:47:04;;;;;;;;;;;;;;;;;;5037419;28;7109;-64
2022/12/13 17:49:32;;;;;;;;;;;;;;;;;;5037377;28;7008;-64
2022/12/13 17:51:57;;;;;;;;;;;;;;;;;;5037450;28;7258;-64
2022/12/13 17:54:29;;;;;;;;;;;;;;;;;;5036042;28;8438;-64
2022/12/13 17:56:55;;;;;;;;;;;;;;;;;;5037526;28;7320;-64
2022/12/13 17:59:38;;;;;;;;;;;;;;;;;;5037247;28;7121;-64
2022/12/13 18:02:04;;;;;;;;;;;;;;;;;;5037203;28;7381;-63
2022/12/13 18:04:30;;;;;;;;;;;;;;;;;;5037616;28;7092;-63
2022/12/13 18:09:57;;;;;;;;;;;;;;;;;;5037223;28;6753;-64
2022/12/13 18:12:23;;;;;;;;;;;;;;;;;;5037005;28;6895;-64
2022/12/13 18:14:49;;;;;;;;;;;;;;;;;;5037362;28;6850;-64
2022/12/13 18:17:53;;;;;;;;;;;;;;;;;;5036930;28;7612;-64
2022/12/13 18:20:19;;;;;;;;;;;;;;;;;;4956650;28;7388;-64
2022/12/13 18:22:44;;;;;;;;;;;;;;;;;;4956548;28;7370;-63
2022/12/13 18:25:10;;;;;;;;;;;;;;;;;;4955603;28;7192;-70
2022/12/13 18:27:36;;;;;;;;;;;;;;;;;;4975742;28;7219;-64
2022/12/13 18:30:02;;;;;;;;;;;;;;;;;;4975772;28;7981;-64
2022/12/13 18:32:28;;;;;;;;;;;;;;;;;;4975945;28;7130;-63
2022/12/13 18:34:53;;;;;;;;;;;;;;;;;;4975571;28;7384;-64
2022/12/13 18:37:19;;;;;;;;;;;;;;;;;;4975423;28;7458;-64
2022/12/13 18:39:44;;;;;;;;;;;;;;;;;;4975588;28;6914;-64
2022/12/13 18:42:30;;;;;;;;;;;;;;;;;;4975633;28;6950;-64
2022/12/13 18:44:55;;;;;;;;;;;;;;;;;;4974435;28;7418;-64
2022/12/13 18:47:34;;;;;;;;;;;;;;;;;;4975131;28;7379;-64
2022/12/13 18:50:00;;;;;;;;;;;;;;;;;;4977623;28;7401;-64
2022/12/13 18:52:42;;;;;;;;;;;;;;;;;;5036140;28;7321;-64
2022/12/13 18:55:08;;;;;;;;;;;;;;;;;;5036000;28;7074;-64
2022/12/13 18:57:35;;;;;;;;;;;;;;;;;;5036092;28;7038;-64
2022/12/13 19:00:01;;;;;;;;;;;;;;;;;;5035786;28;6863;-64
2022/12/13 19:02:27;;;;;;;;;;;;;;;;;;5036049;28;6935;-64
2022/12/13 19:05:03;;;;;;;;;;;;;;;;;;5036061;28;7165;-64
2022/12/13 19:07:29;;;;;;;;;;;;;;;;;;5035921;28;7215;-64
2022/12/13 19:10:05;;;;;;;;;;;;;;;;;;5035827;28;7246;-64
2022/12/13 19:12:31;;;;;;;;;;;;;;;;;;5035700;28;7203;-64
2022/12/13 19:14:59;;;;;;;;;;;;;;;;;;5035688;28;7225;-64
2022/12/13 19:17:25;;;;;;;;;;;;;;;;;;5035927;28;6964;-64
2022/12/13 19:19:50;;;;;;;;;;;;;;;;;;5035380;28;6955;-64
2022/12/13 19:22:29;;;;;;;;;;;;;;;;;;5035656;28;7024;-72
2022/12/13 19:24:54;;;;;;;;;;;;;;;;;;5035951;28;7203;-72
2022/12/13 19:27:20;;;;;;;;;;;;;;;;;;5035406;28;7021;-72
2022/12/13 19:30:05;;;;;;;;;;;;;;;;;;5035765;28;7392;-72
2022/12/13 19:32:31;;;;;;;;;;;;;;;;;;5035494;28;7254;-72
2022/12/13 19:34:57;;;;;;;;;;;;;;;;;;5035286;28;7011;-72
2022/12/13 19:37:24;;;;;;;;;;;;;;;;;;5035493;28;7111;-72
2022/12/13 19:39:49;;;;;;;;;;;;;;;;;;5035366;28;7139;-72
2022/12/13 19:42:20;;;;;;;;;;;;;;;;;;5035354;28;7552;-72
2022/12/13 19:44:46;;;;;;;;;;;;;;;;;;5035069;28;6936;-72
2022/12/13 19:47:42;;;;;;;;;;;;;;;;;;5035207;28;7451;-72
2022/12/13 19:50:08;;;;;;;;;;;;;;;;;;5035191;28;7372;-72
2022/12/13 19:52:33;;;;;;;;;;;;;;;;;;5035136;28;7131;-72
2022/12/13 19:57:59;;;;;;;;;;;;;;;;;;5035118;28;6920;-72
2022/12/13 20:00:27;;;;;;;;;;;;;;;;;;5035057;28;7064;-72
2022/12/13 20:02:53;;;;;;;;;;;;;;;;;;5034733;28;7098;-73
2022/12/13 20:05:19;;;;;;;;;;;;;;;;;;5034857;28;7117;-72
2022/12/13 20:07:44;;;;;;;;;;;;;;;;;;5034873;28;7000;-64
2022/12/13 20:10:18;;;;;;;;;;;;;;;;;;5034824;28;7206;-64
2022/12/13 20:12:43;;;;;;;;;;;;;;;;;;5034924;28;7226;-64
2022/12/13 20:15:14;;;;;;;;;;;;;;;;;;5034807;28;7077;-64
2022/12/13 20:17:40;;;;;;;;;;;;;;;;;;5034818;28;6823;-64
2022/12/13 20:20:14;;;;;;;;;;;;;;;;;;5034381;28;8414;-72
2022/12/13 20:22:40;;;;;;;;;;;;;;;;;;5033486;28;8417;-72
2022/12/13 20:25:06;;;;;;;;;;;;;;;;;;5034762;28;6963;-72
2022/12/13 20:27:31;;;;;;;;;;;;;;;;;;5034458;28;7331;-72
2022/12/13 20:30:03;;;;;;;;;;;;;;;;;;5034627;28;7159;-72
2022/12/13 20:32:29;;;;;;;;;;;;;;;;;;5034592;28;6980;-72
2022/12/13 20:35:01;;;;;;;;;;;;;;;;;;5034407;28;7172;-72
2022/12/13 20:37:27;;;;;;;;;;;;;;;;;;5034454;28;7045;-72
2022/12/13 20:39:53;;;;;;;;;;;;;;;;;;5034469;28;7139;-72
2022/12/13 20:42:20;;;;;;;;;;;;;;;;;;5034308;28;8259;-72
2022/12/13 20:44:46;;;;;;;;;;;;;;;;;;5034521;28;7075;-72
2022/12/13 20:47:13;;;;;;;;;;;;;;;;;;5034341;28;6931;-72
2022/12/13 20:49:40;;;;;;;;;;;;;;;;;;5017094;28;6937;-72
2022/12/13 20:52:06;;;;;;;;;;;;;;;;;;5034253;28;6963;-72
2022/12/13 20:54:41;;;;;;;;;;;;;;;;;;5034482;28;6955;-72
2022/12/13 20:57:07;;;;;;;;;;;;;;;;;;5034432;28;6920;-72
2022/12/13 20:59:33;;;;;;;;;;;;;;;;;;5034324;28;7306;-72
2022/12/13 21:01:58;;;;;;;;;;;;;;;;;;5034475;28;6946;-72
2022/12/13 21:04:44;;;;;;;;;;;;;;;;;;5034387;28;7056;-72
2022/12/13 21:07:09;;;;;;;;;;;;;;;;;;5034245;28;6983;-72
2022/12/13 21:09:35;;;;;;;;;;;;;;;;;;5034244;28;7484;-72
2022/12/13 21:12:02;;;;;;;;;;;;;;;;;;5035537;28;7107;-72
2022/12/13 21:14:35;;;;;;;;;;;;;;;;;;5038074;28;6955;-72
2022/12/13 21:17:03;;;;;;;;;;;;;;;;;;5037942;28;7067;-72
2022/12/13 21:19:34;;;;;;;;;;;;;;;;;;5037643;28;6877;-72
2022/12/13 21:22:27;;;;;;;;;;;;;;;;;;5037555;28;7332;-72
2022/12/13 21:24:54;;;;;;;;;;;;;;;;;;5038126;28;7258;-72
2022/12/13 21:27:20;;;;;;;;;;;;;;;;;;5037290;28;7430;-72
2022/12/13 21:29:46;;;;;;;;;;;;;;;;;;5038186;28;6956;-72
2022/12/13 21:32:12;;;;;;;;;;;;;;;;;;5037671;28;7426;-72
2022/12/13 21:34:38;;;;;;;;;;;;;;;;;;5037727;28;7097;-73
2022/12/13 21:37:04;;;;;;;;;;;;;;;;;;5037609;28;7413;-72
2022/12/13 21:39:45;;;;;;;;;;;;;;;;;;5037607;28;6944;-72
2022/12/13 21:42:13;;;;;;;;;;;;;;;;;;5037577;28;7296;-72
2022/12/13 21:44:39;;;;;;;;;;;;;;;;;;5037478;28;7210;-72
2022/12/13 21:47:05;;;;;;;;;;;;;;;;;;5037479;28;7205;-64
2022/12/13 21:49:30;;;;;;;;;;;;;;;;;;5037495;28;7077;-64
2022/12/13 21:51:56;;;;;;;;;;;;;;;;;;5037030;28;7016;-64
2022/12/13 21:54:22;;;;;;;;;;;;;;;;;;5037258;28;7884;-64
2022/12/13 21:59:31;;;;;;;;;;;;;;;;;;5037243;28;6800;-64
2022/12/13 22:04:43;;;;;;;;;;;;;;;;;;5037332;28;7039;-64
2022/12/13 22:07:09;;;;;;;;;;;;;;;;;;5037213;28;7208;-64
2022/12/13 22:09:35;;;;;;;;;;;;;;;;;;5036787;28;7128;-64
2022/12/13 22:12:05;;;;;;;;;;;;;;;;;;5037047;28;7107;-64
2022/12/13 22:14:32;;;;;;;;;;;;;;;;;;5037063;28;7028;-64
2022/12/13 22:16:57;;;;;;;;;;;;;;;;;;5036558;28;7054;-64
2022/12/13 22:19:41;;;;;;;;;;;;;;;;;;5036862;28;7169;-64
2022/12/13 22:22:40;;;;;;;;;;;;;;;;;;5037744;28;7403;-64
2022/12/13 22:25:06;;;;;;;;;;;;;;;;;;5036667;28;6984;-64
2022/12/13 22:27:32;;;;;;;;;;;;;;;;;;5034494;28;7089;-64
2022/12/13 22:30:09;;;;;;;;;;;;;;;;;;5019593;28;8457;-64
2022/12/13 22:32:35;;;;;;;;;;;;;;;;;;5036733;28;7059;-64
2022/12/13 22:35:00;;;;;;;;;;;;;;;;;;5036555;28;6831;-64
2022/12/13 22:37:26;;;;;;;;;;;;;;;;;;5036425;28;6974;-64
2022/12/13 22:39:52;;;;;;;;;;;;;;;;;;5037323;28;6920;-64
2022/12/13 22:42:20;;;;;;;;;;;;;;;;;;5036329;28;7119;-64
2022/12/13 22:44:46;;;;;;;;;;;;;;;;;;5036554;28;7171;-64
2022/12/13 22:47:28;;;;;;;;;;;;;;;;;;5036635;28;7056;-64
2022/12/13 22:49:54;;;;;;;;;;;;;;;;;;5036333;28;7263;-64
2022/12/13 22:52:19;;;;;;;;;;;;;;;;;;5036456;28;6808;-64
2022/12/13 22:54:47;;;;;;;;;;;;;;;;;;5036366;28;7068;-64
2022/12/13 22:57:13;;;;;;;;;;;;;;;;;;5036071;28;7362;-64
2022/12/13 22:59:58;;;;;;;;;;;;;;;;;;5036220;28;7111;-64
2022/12/13 23:02:24;;;;;;;;;;;;;;;;;;5035822;28;7108;-64
2022/12/13 23:04:50;;;;;;;;;;;;;;;;;;5036296;28;7190;-64
2022/12/13 23:07:15;;;;;;;;;;;;;;;;;;5036046;28;7132;-64
2022/12/13 23:09:41;;;;;;;;;;;;;;;;;;5035888;28;7008;-64
2022/12/13 23:14:51;;;;;;;;;;;;;;;;;;5036318;28;6916;-64
2022/12/13 23:17:28;;;;;;;;;;;;;;;;;;5035795;28;7273;-64
2022/12/13 23:19:54;;;;;;;;;;;;;;;;;;5035808;28;7147;-64
2022/12/13 23:22:21;;;;;;;;;;;;;;;;;;5035755;28;7354;-64
2022/12/13 23:24:47;;;;;;;;;;;;;;;;;;5018425;28;8703;-64
2022/12/13 23:27:13;;;;;;;;;;;;;;;;;;5035199;28;7261;-64
2022/12/13 23:29:52;;;;;;;;;;;;;;;;;;5035185;28;7406;-64
2022/12/13 23:32:17;;;;;;;;;;;;;;;;;;5017730;28;8400;-64
2022/12/13 23:34:54;;;;;;;;;;;;;;;;;;5035001;28;7220;-72
2022/12/13 23:37:20;;;;;;;;;;;;;;;;;;5035528;28;7221;-72
2022/12/13 23:39:52;;;;;;;;;;;;;;;;;;5035376;28;7072;-72
2022/12/13 23:42:18;;;;;;;;;;;;;;;;;;5035293;28;7144;-72
2022/12/13 23:44:54;;;;;;;;;;;;;;;;;;5034924;28;6987;-72
2022/12/13 23:47:21;;;;;;;;;;;;;;;;;;5035214;28;7203;-72
2022/12/13 23:49:46;;;;;;;;;;;;;;;;;;5035184;28;7221;-72
2022/12/13 23:52:12;;;;;;;;;;;;;;;;;;5036159;28;7059;-73
2022/12/13 23:54:49;;;;;;;;;;;;;;;;;;5036295;28;7121;-72
2022/12/13 23:57:15;;;;;;;;;;;;;;;;;;5035005;28;7113;-72
2022/12/13 23:59:53;;;;;;;;;;;;;;;;;;5035400;28;7371;-73
